Time;durP1;ratioP1;P1;durP2;ratioP2;P2;SDS_P1;SDS_P2;PMS_P1;PMS_P2;Temp;Humidity;BMP_temperature;BMP_pressure;BME280_temperature;BME280_humidity;BME280_pressure;Samples;Min_cycle;Max_cycle;Signal;HPM_P1;HPM_P2
2023/01/17 00:01:58;;;;;;;3.60;2.00;;;4.70;99.90;;;;;;5031802;28;20509;-53
2023/01/17 00:09:57;;;;;;;6.85;4.47;;;4.70;99.90;;;;;;5033046;28;20060;-52
2023/01/17 00:12:24;;;;;;;4.20;1.92;;;4.70;99.90;;;;;;5031987;28;20042;-56
2023/01/17 00:14:52;;;;;;;5.10;2.67;;;4.70;99.90;;;;;;5032156;28;20405;-58
2023/01/17 00:17:18;;;;;;;2.38;1.85;;;4.80;99.90;;;;;;5031562;28;20084;-54
2023/01/17 01:34:28;;;;;;;3.63;1.67;;;3.80;99.90;;;;;;5035077;28;20028;-52
2023/01/17 01:36:53;;;;;;;2.40;1.65;;;3.70;99.90;;;;;;5035176;28;20033;-53
2023/01/17 01:39:19;;;;;;;3.67;2.00;;;3.80;99.90;;;;;;5035028;28;20575;-48
2023/01/17 01:41:44;;;;;;;4.30;2.20;;;3.80;99.90;;;;;;5034928;28;20060;-51
2023/01/17 01:44:40;;;;;;;6.32;2.17;;;3.80;99.90;;;;;;5034616;28;20104;-50
2023/01/17 01:47:09;;;;;;;9.48;2.08;;;3.80;99.90;;;;;;5034900;28;20025;-49
2023/01/17 01:49:35;;;;;;;4.20;2.42;;;3.80;99.90;;;;;;5033571;28;20033;-49
2023/01/17 01:52:03;;;;;;;6.05;2.00;;;3.80;99.90;;;;;;5034411;28;20033;-51
2023/01/17 01:54:35;;;;;;;4.55;2.30;;;3.80;99.90;;;;;;5034800;28;20032;-49
2023/01/17 01:57:03;;;;;;;7.22;2.88;;;3.80;99.90;;;;;;5034720;28;20030;-52
2023/01/17 01:59:32;;;;;;;7.10;2.65;;;3.80;99.90;;;;;;5034855;28;20029;-53
2023/01/17 02:01:57;;;;;;;2.75;2.03;;;3.90;99.90;;;;;;5034077;28;20044;-54
2023/01/17 02:04:24;;;;;;;3.63;2.33;;;3.90;99.90;;;;;;5035067;28;20036;-51
2023/01/17 02:07:05;;;;;;;4.68;2.95;;;3.90;99.90;;;;;;5033306;28;20033;-53
2023/01/17 02:09:31;;;;;;;2.75;2.05;;;4.00;99.90;;;;;;5034834;28;20021;-49
2023/01/17 02:11:56;;;;;;;4.22;3.10;;;4.00;99.90;;;;;;5033877;28;20025;-55
2023/01/17 02:14:22;;;;;;;2.15;1.95;;;4.00;99.90;;;;;;5034752;28;20116;-56
2023/01/17 02:16:56;;;;;;;6.00;2.83;;;4.00;99.90;;;;;;5034413;28;20432;-51
2023/01/17 02:19:53;;;;;;;3.00;2.30;;;4.00;99.90;;;;;;5034488;28;20030;-49
2023/01/17 02:23:02;;;;;;;6.70;2.35;;;4.00;99.90;;;;;;5033404;28;20111;-53
2023/01/17 02:25:55;;;;;;;3.95;2.50;;;4.00;99.90;;;;;;5034352;28;20029;-49
2023/01/17 02:28:49;;;;;;;5.18;2.25;;;4.10;99.90;;;;;;5034154;28;20033;-50
2023/01/17 02:31:36;;;;;;;4.70;2.15;;;4.00;99.90;;;;;;5034162;28;20021;-55
2023/01/17 02:34:29;;;;;;;7.28;3.17;;;4.10;99.90;;;;;;5031924;28;20032;-54
2023/01/17 02:37:05;;;;;;;5.18;2.40;;;4.00;99.90;;;;;;5034156;28;20059;-56
2023/01/17 02:39:43;;;;;;;4.93;2.83;;;4.00;99.90;;;;;;5034294;28;20444;-53
2023/01/17 02:42:15;;;;;;;6.65;2.22;;;4.00;99.90;;;;;;5032204;28;20034;-56
2023/01/17 02:44:41;;;;;;;7.53;2.20;;;4.00;99.90;;;;;;5034071;28;20037;-50
2023/01/17 02:47:26;;;;;;;3.40;2.15;;;3.90;99.90;;;;;;5034066;28;20438;-53
2023/01/17 02:49:54;;;;;;;3.17;2.25;;;3.80;99.90;;;;;;5033787;28;20037;-52
2023/01/17 02:52:37;;;;;;;3.25;2.20;;;3.70;99.90;;;;;;5033462;28;20109;-56
2023/01/17 02:55:06;;;;;;;2.75;1.90;;;3.70;99.90;;;;;;5033734;28;20052;-54
2023/01/17 02:57:46;;;;;;;3.72;2.38;;;3.70;99.90;;;;;;5033733;28;20021;-52
2023/01/17 03:00:17;;;;;;;6.25;3.35;;;3.70;99.90;;;;;;5033885;28;20029;-57
2023/01/17 03:03:16;;;;;;;4.90;2.60;;;3.70;99.90;;;;;;5032864;28;20025;-52
2023/01/17 03:06:12;;;;;;;3.55;2.50;;;3.70;99.90;;;;;;5033162;28;20509;-51
2023/01/17 03:08:40;;;;;;;5.00;2.38;;;3.60;99.90;;;;;;5033768;28;20437;-51
2023/01/17 03:11:10;;;;;;;5.93;2.85;;;3.60;99.90;;;;;;5033519;28;20030;-55
2023/01/17 03:13:36;;;;;;;2.42;2.22;;;3.60;99.90;;;;;;5032933;28;20025;-54
2023/01/17 03:16:06;;;;;;;5.25;2.30;;;3.60;99.90;;;;;;5033397;28;20028;-55
2023/01/17 03:18:32;;;;;;;2.75;2.47;;;3.60;99.90;;;;;;5032251;28;20420;-53
2023/01/17 03:20:57;;;;;;;4.90;2.30;;;3.60;99.90;;;;;;5033548;28;20036;-54
2023/01/17 03:23:23;;;;;;;3.67;2.35;;;3.50;99.90;;;;;;5048053;28;20033;-50
2023/01/17 03:25:48;;;;;;;2.53;2.28;;;3.50;99.90;;;;;;5032204;28;20500;-54
2023/01/17 03:28:14;;;;;;;6.15;3.40;;;3.50;99.90;;;;;;5032501;28;20022;-50
2023/01/17 03:30:39;;;;;;;7.45;2.70;;;3.50;99.90;;;;;;5033154;28;20030;-54
2023/01/17 03:33:05;;;;;;;4.45;2.50;;;3.50;99.90;;;;;;5031295;28;20026;-52
2023/01/17 03:35:30;;;;;;;5.30;2.78;;;3.40;99.90;;;;;;5033176;28;20026;-54
2023/01/17 03:37:56;;;;;;;3.63;3.08;;;3.40;99.90;;;;;;5032918;28;20064;-55
2023/01/17 03:40:21;;;;;;;5.72;2.45;;;3.40;99.90;;;;;;5032764;28;20025;-50
2023/01/17 03:42:47;;;;;;;3.83;2.50;;;3.30;99.90;;;;;;5032640;28;20032;-54
2023/01/17 03:45:12;;;;;;;3.22;2.42;;;3.30;99.90;;;;;;5033035;28;20104;-53
2023/01/17 03:47:38;;;;;;;4.45;2.38;;;3.30;99.90;;;;;;5032407;28;20035;-50
2023/01/17 03:50:04;;;;;;;5.88;3.08;;;3.30;99.90;;;;;;5033044;28;20025;-49
2023/01/17 03:52:29;;;;;;;3.30;2.70;;;3.20;99.90;;;;;;5032021;28;20048;-55
2023/01/17 03:54:55;;;;;;;2.67;2.47;;;3.30;99.90;;;;;;5032011;28;20053;-53
2023/01/17 03:57:20;;;;;;;4.18;2.78;;;3.30;99.90;;;;;;5032567;28;20037;-52
2023/01/17 03:59:47;;;;;;;6.88;2.55;;;3.20;99.90;;;;;;5032623;28;20029;-52
2023/01/17 04:02:13;;;;;;;3.67;2.67;;;3.20;99.90;;;;;;5031867;28;20022;-51
2023/01/17 04:04:38;;;;;;;3.85;2.95;;;3.20;99.90;;;;;;5032739;28;20025;-50
2023/01/17 04:07:04;;;;;;;5.75;2.55;;;3.10;99.90;;;;;;5032510;28;20030;-54
2023/01/17 04:09:32;;;;;;;4.82;2.83;;;3.20;99.90;;;;;;5032100;28;20075;-54
2023/01/17 04:12:01;;;;;;;3.20;2.90;;;3.10;99.90;;;;;;5031563;28;20048;-53
2023/01/17 04:14:27;;;;;;;4.80;3.60;;;3.10;99.90;;;;;;5032145;28;20544;-54
2023/01/17 04:16:53;;;;;;;3.47;2.50;;;3.00;99.90;;;;;;5032326;28;20060;-55
2023/01/17 04:19:19;;;;;;;3.85;2.90;;;3.00;99.90;;;;;;5032216;28;20063;-57
2023/01/17 04:21:44;;;;;;;5.03;2.67;;;3.00;99.90;;;;;;5031974;28;20052;-53
2023/01/17 04:24:10;;;;;;;6.72;2.90;;;3.00;99.90;;;;;;5031467;28;20025;-50
2023/01/17 04:26:35;;;;;;;4.78;3.00;;;3.10;99.90;;;;;;5032036;28;20490;-52
2023/01/17 04:29:01;;;;;;;5.22;3.08;;;3.10;99.90;;;;;;5032344;28;20037;-55
2023/01/17 04:31:26;;;;;;;3.35;2.83;;;3.20;99.90;;;;;;5032252;28;20055;-50
2023/01/17 04:33:52;;;;;;;3.80;3.40;;;3.10;99.90;;;;;;5029991;28;20029;-49
2023/01/17 04:36:17;;;;;;;2.65;2.40;;;3.10;99.90;;;;;;5031977;28;20036;-55
2023/01/17 04:38:43;;;;;;;5.45;3.42;;;3.10;99.90;;;;;;5032055;28;20091;-54
2023/01/17 04:41:08;;;;;;;5.60;3.15;;;3.10;99.90;;;;;;5032209;28;20021;-51
2023/01/17 04:43:34;;;;;;;4.75;2.92;;;3.20;99.90;;;;;;5031360;28;20513;-55
2023/01/17 04:46:00;;;;;;;3.55;2.65;;;3.20;99.90;;;;;;5031787;28;20103;-54
2023/01/17 04:48:26;;;;;;;3.88;3.35;;;3.30;99.90;;;;;;5031902;28;20109;-52
2023/01/17 04:50:58;;;;;;;4.22;3.50;;;3.30;99.90;;;;;;5031750;28;20505;-56
2023/01/17 04:53:23;;;;;;;4.20;2.88;;;3.40;99.90;;;;;;5031219;28;20393;-52
2023/01/17 04:55:49;;;;;;;5.60;3.13;;;3.30;99.90;;;;;;5031574;28;20022;-55
2023/01/17 04:58:14;;;;;;;5.65;3.13;;;3.40;99.90;;;;;;5031630;28;20507;-53
2023/01/17 05:00:40;;;;;;;6.10;3.03;;;3.40;99.90;;;;;;5031358;28;20096;-52
2023/01/17 05:03:06;;;;;;;5.32;3.53;;;3.40;99.90;;;;;;5031032;28;20025;-53
2023/01/17 05:05:31;;;;;;;5.93;3.65;;;3.40;99.90;;;;;;5030797;28;20029;-52
2023/01/17 05:07:57;;;;;;;7.78;3.63;;;3.40;99.90;;;;;;5029715;28;20116;-53
2023/01/17 05:10:24;;;;;;;3.40;3.10;;;3.50;99.90;;;;;;5031318;28;20029;-55
2023/01/17 05:12:57;;;;;;;6.22;3.22;;;3.50;99.90;;;;;;5029633;28;20048;-54
2023/01/17 05:15:24;;;;;;;3.55;3.00;;;3.50;99.90;;;;;;5031568;28;20021;-58
2023/01/17 05:17:51;;;;;;;4.38;3.15;;;3.50;99.90;;;;;;5030419;28;20379;-54
2023/01/17 05:20:17;;;;;;;7.90;3.33;;;3.60;99.90;;;;;;5031766;28;20497;-52
2023/01/17 05:22:43;;;;;;;6.13;3.35;;;3.50;99.90;;;;;;5030506;28;20120;-57
2023/01/17 05:25:09;;;;;;;6.15;3.45;;;3.60;99.90;;;;;;5031156;28;20061;-50
2023/01/17 05:27:34;;;;;;;9.75;3.47;;;3.60;99.90;;;;;;5031009;28;20022;-54
2023/01/17 05:30:00;;;;;;;6.28;2.90;;;3.60;99.90;;;;;;5031385;28;20025;-54
2023/01/17 05:32:25;;;;;;;5.32;2.95;;;3.60;99.90;;;;;;5030657;28;20025;-53
2023/01/17 05:34:51;;;;;;;5.75;3.53;;;3.70;99.90;;;;;;5046706;28;20034;-55
2023/01/17 05:37:16;;;;;;;4.95;4.05;;;3.70;99.90;;;;;;5031257;28;20161;-51
2023/01/17 05:39:42;;;;;;;3.33;2.92;;;3.60;99.90;;;;;;5030241;28;20030;-55
2023/01/17 05:42:07;;;;;;;3.45;3.17;;;3.60;99.90;;;;;;5031065;28;20124;-55
2023/01/17 05:44:33;;;;;;;4.40;3.25;;;3.60;99.90;;;;;;5031173;28;20378;-49
2023/01/17 05:46:58;;;;;;;7.50;4.72;;;3.50;99.90;;;;;;5031363;28;20033;-53
2023/01/17 05:49:24;;;;;;;5.70;3.33;;;3.50;99.90;;;;;;5031652;28;20533;-54
2023/01/17 05:51:50;;;;;;;5.88;3.20;;;3.50;99.90;;;;;;5029900;28;20505;-50
2023/01/17 05:54:16;;;;;;;5.22;3.63;;;3.60;99.90;;;;;;5030165;28;20104;-54
2023/01/17 05:56:41;;;;;;;5.40;3.03;;;3.50;99.90;;;;;;5030255;28;20044;-54
2023/01/17 05:59:07;;;;;;;9.05;3.85;;;3.60;99.90;;;;;;5031469;28;20033;-57
2023/01/17 06:01:32;;;;;;;4.97;3.47;;;3.60;99.90;;;;;;5046557;28;20076;-51
2023/01/17 06:03:57;;;;;;;3.58;3.20;;;3.60;99.90;;;;;;5031461;28;20025;-55
2023/01/17 06:06:23;;;;;;;5.43;3.30;;;3.60;99.90;;;;;;5032421;28;20042;-55
2023/01/17 06:08:49;;;;;;;9.43;3.70;;;3.60;99.90;;;;;;5030245;28;20021;-56
2023/01/17 06:11:14;;;;;;;8.13;3.58;;;3.70;99.90;;;;;;5031471;28;20401;-54
2023/01/17 06:13:40;;;;;;;3.80;3.40;;;3.60;99.90;;;;;;5030615;28;20025;-57
2023/01/17 06:16:05;;;;;;;6.22;3.38;;;3.60;99.90;;;;;;5031619;28;20049;-53
2023/01/17 06:18:31;;;;;;;4.00;3.25;;;3.60;99.90;;;;;;5032443;28;20031;-52
2023/01/17 06:20:57;;;;;;;4.93;3.90;;;3.60;99.90;;;;;;5033794;28;20065;-52
2023/01/17 06:23:23;;;;;;;7.47;3.70;;;3.60;99.90;;;;;;5034100;28;20037;-53
2023/01/17 06:25:49;;;;;;;6.53;3.67;;;3.50;99.90;;;;;;5033655;28;20028;-55
2023/01/17 06:28:17;;;;;;;6.82;3.92;;;3.60;99.90;;;;;;5035327;28;20452;-53
2023/01/17 06:30:43;;;;;;;7.90;4.63;;;3.60;99.90;;;;;;5033840;28;20500;-55
2023/01/17 06:33:10;;;;;;;4.72;3.10;;;3.50;99.90;;;;;;5032608;28;20033;-52
2023/01/17 06:35:37;;;;;;;6.28;3.95;;;3.40;99.90;;;;;;5034582;28;20504;-53
2023/01/17 06:38:03;;;;;;;8.25;3.33;;;3.40;99.90;;;;;;5033314;28;20071;-54
2023/01/17 06:40:29;;;;;;;4.80;3.53;;;3.40;99.90;;;;;;5034503;28;20393;-55
2023/01/17 06:43:02;;;;;;;5.35;3.40;;;3.40;99.90;;;;;;5033590;28;20481;-56
2023/01/17 06:45:29;;;;;;;3.83;2.78;;;3.30;99.90;;;;;;5034726;28;20029;-53
2023/01/17 06:47:55;;;;;;;4.97;2.55;;;3.40;99.90;;;;;;5032918;28;20037;-49
2023/01/17 06:50:20;;;;;;;4.65;3.10;;;3.40;99.90;;;;;;5034762;28;20025;-53
2023/01/17 06:52:55;;;;;;;4.53;2.88;;;3.40;99.90;;;;;;5033214;28;20099;-55
2023/01/17 06:55:20;;;;;;;7.53;3.33;;;3.40;99.90;;;;;;5034682;28;20079;-54
2023/01/17 06:57:47;;;;;;;6.22;3.10;;;3.50;99.90;;;;;;5034831;28;20428;-57
2023/01/17 07:00:13;;;;;;;6.35;2.90;;;3.40;99.90;;;;;;5033722;28;20116;-51
2023/01/17 07:02:39;;;;;;;5.97;3.30;;;3.40;99.90;;;;;;5033968;28;20034;-57
2023/01/17 07:05:05;;;;;;;4.35;3.20;;;3.50;99.90;;;;;;5034385;28;20043;-55
2023/01/17 07:07:32;;;;;;;6.90;3.35;;;3.50;99.90;;;;;;5034479;28;20025;-56
2023/01/17 07:09:57;;;;;;;9.80;3.97;;;3.50;99.90;;;;;;5034188;28;20123;-52
2023/01/17 07:12:23;;;;;;;6.68;3.58;;;3.50;99.90;;;;;;5034197;28;20018;-54
2023/01/17 07:14:48;;;;;;;5.90;3.80;;;3.60;99.90;;;;;;5033230;28;20018;-53
2023/01/17 07:17:14;;;;;;;5.82;3.97;;;3.60;99.90;;;;;;5034360;28;20029;-54
2023/01/17 07:19:39;;;;;;;5.47;3.90;;;3.70;99.90;;;;;;5034105;28;20030;-53
2023/01/17 07:22:05;;;;;;;5.80;3.80;;;3.70;99.90;;;;;;5033103;28;20045;-58
2023/01/17 07:24:31;;;;;;;4.47;3.88;;;3.70;99.90;;;;;;5032827;28;20034;-55
2023/01/17 07:26:57;;;;;;;5.63;4.18;;;3.70;99.90;;;;;;5033665;28;20440;-54
2023/01/17 07:29:22;;;;;;;8.65;4.15;;;3.70;99.90;;;;;;5032967;28;20026;-53
2023/01/17 07:31:48;;;;;;;6.28;4.13;;;3.70;99.90;;;;;;5033957;28;20083;-52
2023/01/17 07:34:13;;;;;;;7.53;3.78;;;3.80;99.90;;;;;;5033227;28;20105;-56
2023/01/17 07:36:39;;;;;;;7.25;4.60;;;3.70;99.90;;;;;;5033519;28;20029;-52
2023/01/17 07:39:04;;;;;;;6.97;4.13;;;3.70;99.90;;;;;;5033747;28;20037;-53
2023/01/17 07:41:31;;;;;;;8.45;4.38;;;3.80;99.90;;;;;;5033384;28;20032;-56
2023/01/17 07:43:58;;;;;;;9.45;4.47;;;3.90;99.90;;;;;;5032943;28;20418;-57
2023/01/17 07:46:23;;;;;;;9.05;3.70;;;3.90;99.90;;;;;;5033106;28;20033;-53
2023/01/17 07:48:49;;;;;;;8.50;4.53;;;3.80;99.90;;;;;;5032975;28;20021;-56
2023/01/17 07:51:16;;;;;;;5.15;4.22;;;3.80;99.90;;;;;;5032959;28;20026;-56
2023/01/17 07:53:42;;;;;;;10.55;4.72;;;3.70;99.90;;;;;;5032889;28;20045;-53
2023/01/17 07:56:07;;;;;;;6.03;4.13;;;3.70;99.90;;;;;;5033121;28;20083;-54
2023/01/17 07:58:34;;;;;;;6.88;4.15;;;3.60;99.90;;;;;;5033116;28;20456;-56
2023/01/17 08:01:01;;;;;;;5.40;4.40;;;3.70;99.90;;;;;;5031690;28;20026;-51
2023/01/17 08:03:31;;;;;;;6.47;4.63;;;3.60;99.90;;;;;;5032459;28;20452;-55
2023/01/17 08:05:57;;;;;;;4.93;4.43;;;3.60;99.90;;;;;;5032568;28;20022;-51
2023/01/17 08:08:22;;;;;;;5.65;4.38;;;3.60;99.90;;;;;;5032781;28;20026;-53
2023/01/17 08:10:48;;;;;;;5.90;4.03;;;3.50;99.90;;;;;;5032759;28;20381;-52
2023/01/17 08:13:14;;;;;;;7.70;4.53;;;3.60;99.90;;;;;;5032373;28;20029;-55
2023/01/17 08:15:39;;;;;;;7.22;4.43;;;3.60;99.90;;;;;;5031102;28;20021;-53
2023/01/17 08:18:05;;;;;;;6.85;4.13;;;3.60;99.90;;;;;;5032663;28;20057;-54
2023/01/17 08:20:30;;;;;;;6.32;4.03;;;3.60;99.90;;;;;;5032590;28;20096;-53
2023/01/17 08:22:56;;;;;;;6.55;4.32;;;3.60;99.90;;;;;;5031986;28;20094;-56
2023/01/17 08:25:23;;;;;;;5.93;3.80;;;3.50;99.90;;;;;;5032269;28;20037;-54
2023/01/17 08:27:49;;;;;;;7.47;4.25;;;3.40;99.90;;;;;;5032017;28;20064;-57
2023/01/17 08:30:15;;;;;;;5.70;4.18;;;3.40;99.90;;;;;;5032052;28;20437;-56
2023/01/17 08:32:40;;;;;;;13.90;4.72;;;3.40;99.90;;;;;;5028554;28;20025;-56
2023/01/17 08:35:07;;;;;;;9.10;4.80;;;3.50;99.90;;;;;;5032340;28;20477;-51
2023/01/17 08:37:33;;;;;;;8.23;5.32;;;3.50;99.90;;;;;;5032012;28;20029;-54
2023/01/17 08:39:58;;;;;;;7.45;4.25;;;3.50;99.90;;;;;;5031867;28;20504;-55
2023/01/17 08:42:24;;;;;;;5.88;3.95;;;3.60;99.90;;;;;;5030174;28;20033;-56
2023/01/17 08:44:49;;;;;;;12.32;3.95;;;3.60;99.90;;;;;;5031874;28;20034;-54
2023/01/17 08:47:15;;;;;;;11.18;4.78;;;3.60;99.90;;;;;;5031967;28;20113;-55
2023/01/17 08:49:40;;;;;;;4.38;3.90;;;3.60;99.90;;;;;;5031842;28;20087;-54
2023/01/17 08:52:06;;;;;;;7.72;4.35;;;3.60;99.90;;;;;;5030711;28;20062;-53
2023/01/17 08:54:32;;;;;;;6.00;4.03;;;3.60;99.90;;;;;;5040535;28;20017;-56
2023/01/17 08:56:57;;;;;;;6.63;5.05;;;3.70;99.90;;;;;;5050527;28;20408;-54
2023/01/17 08:59:23;;;;;;;4.80;4.10;;;3.70;99.90;;;;;;5046500;28;20036;-56
2023/01/17 09:01:48;;;;;;;5.40;4.55;;;3.80;99.90;;;;;;5050017;28;20061;-55
2023/01/17 09:04:14;;;;;;;10.55;4.90;;;3.90;99.90;;;;;;5051099;28;20557;-64
2023/01/17 09:06:42;;;;;;;5.85;4.53;;;4.00;99.90;;;;;;5051084;28;20365;-52
2023/01/17 09:09:12;;;;;;;4.68;3.70;;;4.70;99.90;;;;;;5049839;28;20021;-52
2023/01/17 09:11:38;;;;;;;7.13;4.22;;;5.70;99.90;;;;;;5048274;28;20484;-54
2023/01/17 09:14:03;;;;;;;4.15;3.22;;;6.90;99.90;;;;;;5050484;28;20039;-53
2023/01/17 09:16:30;;;;;;;5.60;4.10;;;7.90;99.90;;;;;;5051132;28;20033;-52
2023/01/17 09:18:57;;;;;;;9.70;3.50;;;8.40;99.90;;;;;;5051231;28;20559;-52
2023/01/17 09:21:23;;;;;;;5.20;4.18;;;8.80;99.90;;;;;;5050980;28;20485;-53
2023/01/17 09:23:48;;;;;;;8.95;5.03;;;9.10;99.90;;;;;;5050314;28;20021;-55
2023/01/17 09:26:20;;;;;;;5.70;4.05;;;9.60;99.90;;;;;;5051194;28;20109;-51
2023/01/17 09:28:45;;;;;;;5.80;4.07;;;10.40;99.90;;;;;;5050963;28;20392;-54
2023/01/17 09:31:11;;;;;;;6.93;3.65;;;11.00;99.90;;;;;;5051048;28;20100;-52
2023/01/17 09:33:37;;;;;;;5.53;3.78;;;11.50;99.90;;;;;;5049003;28;20021;-51
2023/01/17 09:36:04;;;;;;;5.63;4.00;;;11.90;99.30;;;;;;5050695;28;20083;-51
2023/01/17 09:38:30;;;;;;;8.60;3.97;;;11.90;98.80;;;;;;5050861;28;20656;-53
2023/01/17 09:40:56;;;;;;;5.78;3.58;;;11.90;99.10;;;;;;5050897;28;20082;-54
2023/01/17 09:43:45;;;;;;;10.50;4.50;;;12.20;99.20;;;;;;5050032;28;20025;-52
2023/01/17 09:46:21;;;;;;;5.75;3.63;;;12.70;98.20;;;;;;5050951;28;20028;-53
2023/01/17 09:48:52;;;;;;;5.40;4.03;;;13.10;97.20;;;;;;5050796;28;20025;-51
2023/01/17 09:51:21;;;;;;;8.55;3.78;;;13.40;96.60;;;;;;5051143;28;20025;-53
2023/01/17 09:53:47;;;;;;;7.53;3.80;;;13.40;95.90;;;;;;5053178;28;20523;-53
2023/01/17 09:56:29;;;;;;;8.30;3.38;;;13.30;95.90;;;;;;5054451;28;20037;-55
2023/01/17 09:59:27;;;;;;;4.40;3.17;;;13.30;96.30;;;;;;5054729;28;20047;-54
2023/01/17 10:02:31;;;;;;;5.32;3.22;;;13.70;95.10;;;;;;5052855;28;20024;-53
2023/01/17 10:05:18;;;;;;;4.50;2.67;;;13.60;95.00;;;;;;5054741;28;20021;-52
2023/01/17 10:08:05;;;;;;;6.03;2.42;;;13.90;94.20;;;;;;5054523;28;20393;-54
2023/01/17 10:10:41;;;;;;;3.17;2.72;;;13.80;93.80;;;;;;5054634;28;20085;-50
2023/01/17 10:13:43;;;;;;;4.38;2.90;;;13.60;94.00;;;;;;5054034;28;20079;-51
2023/01/17 10:16:34;;;;;;;2.25;2.05;;;13.20;94.90;;;;;;5054157;28;20028;-56
2023/01/17 10:19:39;;;;;;;3.25;2.40;;;13.00;94.70;;;;;;5054126;28;20036;-56
2023/01/17 10:22:14;;;;;;;5.35;2.58;;;12.90;95.10;;;;;;5053092;28;20460;-55
2023/01/17 10:25:26;;;;;;;3.90;2.35;;;12.70;93.70;;;;;;5053881;28;20092;-52
2023/01/17 10:28:14;;;;;;;4.50;2.28;;;12.30;93.40;;;;;;5053622;28;20110;-56
2023/01/17 10:30:47;;;;;;;6.28;2.65;;;11.60;94.20;;;;;;5054585;28;20104;-54
2023/01/17 10:33:46;;;;;;;2.35;1.88;;;10.60;95.00;;;;;;5053723;28;20100;-51
2023/01/17 10:36:22;;;;;;;5.70;2.40;;;9.40;96.00;;;;;;5041626;28;20025;-56
2023/01/17 10:38:55;;;;;;;3.60;2.72;;;8.60;97.60;;;;;;5033866;28;20029;-55
2023/01/17 10:41:38;;;;;;;2.88;2.15;;;8.10;98.70;;;;;;5034022;28;20022;-56
2023/01/17 10:44:19;;;;;;;2.75;2.47;;;7.60;99.90;;;;;;5036429;28;20029;-59
2023/01/17 10:47:09;;;;;;;5.82;3.10;;;7.30;99.90;;;;;;5034294;28;20034;-51
2023/01/17 10:49:45;;;;;;;9.50;4.35;;;7.50;99.90;;;;;;5033907;28;20412;-50
2023/01/17 10:52:38;;;;;;;4.70;2.92;;;7.90;99.90;;;;;;5046512;28;20458;-50
2023/01/17 10:55:37;;;;;;;4.45;2.42;;;8.30;99.90;;;;;;5053625;28;20439;-60
2023/01/17 10:58:04;;;;;;;5.25;2.85;;;8.90;99.70;;;;;;5046854;28;20056;-53
2023/01/17 11:00:43;;;;;;;6.20;3.28;;;9.30;99.10;;;;;;5040540;28;20056;-54
2023/01/17 11:03:13;;;;;;;2.85;2.58;;;9.40;98.90;;;;;;5034022;28;20184;-57
2023/01/17 11:05:41;;;;;;;1.98;1.85;;;9.40;98.30;;;;;;5041099;28;20021;-58
2023/01/17 11:08:09;;;;;;;3.03;2.10;;;9.30;97.50;;;;;;5043393;28;20029;-55
2023/01/17 11:10:48;;;;;;;2.30;1.88;;;9.00;97.80;;;;;;5033027;28;20071;-55
2023/01/17 11:13:35;;;;;;;2.55;2.10;;;8.80;97.90;;;;;;5040567;28;20040;-57
2023/01/17 11:16:07;;;;;;;5.07;2.10;;;8.40;99.00;;;;;;5036315;28;20094;-55
2023/01/17 11:18:38;;;;;;;2.85;2.30;;;8.00;99.40;;;;;;5036916;28;20036;-56
2023/01/17 11:21:14;;;;;;;3.67;2.80;;;8.00;99.90;;;;;;5032735;28;20103;-55
2023/01/17 11:23:42;;;;;;;4.07;2.30;;;7.70;99.90;;;;;;5046220;28;20511;-57
2023/01/17 11:26:19;;;;;;;6.68;2.38;;;7.30;99.90;;;;;;5048024;28;20036;-56
2023/01/17 11:28:45;;;;;;;3.10;2.80;;;7.10;99.90;;;;;;5035406;28;20033;-55
2023/01/17 11:31:23;;;;;;;3.80;2.38;;;7.00;99.90;;;;;;5032200;28;20041;-58
2023/01/17 11:34:04;;;;;;;3.10;2.53;;;6.80;99.90;;;;;;5043260;28;20125;-57
2023/01/17 11:36:30;;;;;;;6.22;3.03;;;6.80;99.90;;;;;;5045581;28;20055;-55
2023/01/17 11:38:57;;;;;;;3.97;3.00;;;6.70;99.90;;;;;;5035768;28;20063;-57
2023/01/17 11:41:26;;;;;;;6.05;3.47;;;6.80;99.90;;;;;;5039796;28;20033;-54
2023/01/17 11:43:57;;;;;;;8.23;3.60;;;6.80;99.90;;;;;;5037590;28;20032;-57
2023/01/17 11:46:23;;;;;;;5.28;3.15;;;6.80;99.90;;;;;;5038737;28;20065;-56
2023/01/17 11:48:59;;;;;;;4.68;2.72;;;6.80;99.90;;;;;;5030469;28;20126;-57
2023/01/17 11:51:30;;;;;;;5.13;2.63;;;6.70;99.90;;;;;;5037227;28;20033;-59
2023/01/17 11:54:17;;;;;;;2.90;2.28;;;6.70;99.90;;;;;;5037199;28;20029;-55
2023/01/17 11:56:45;;;;;;;3.65;2.58;;;6.70;99.90;;;;;;5045851;28;20024;-56
2023/01/17 11:59:28;;;;;;;4.35;3.22;;;6.70;99.90;;;;;;5035082;28;20127;-53
2023/01/17 12:02:31;;;;;;;4.68;3.05;;;6.60;99.90;;;;;;5039973;28;20064;-54
2023/01/17 12:05:09;;;;;;;6.05;2.72;;;6.50;99.90;;;;;;5030952;28;20041;-56
2023/01/17 12:07:47;;;;;;;5.25;2.78;;;6.40;99.90;;;;;;5031268;28;20393;-58
2023/01/17 12:10:37;;;;;;;3.15;2.55;;;6.20;99.90;;;;;;5047206;22;20049;-67
2023/01/17 12:16:39;;;;;;;6.13;2.08;;;6.20;99.90;;;;;;5012604;28;20083;-62
2023/01/17 12:19:17;;;;;;;2.05;1.75;;;6.10;99.90;;;;;;5012064;28;20090;-55
2023/01/17 12:22:10;;;;;;;4.32;1.92;;;6.00;99.90;;;;;;5021083;28;20022;-64
2023/01/17 12:25:14;;;;;;;2.67;2.20;;;6.10;99.90;;;;;;5031920;28;20354;-63
2023/01/17 12:27:50;;;;;;;2.45;2.20;;;6.10;99.90;;;;;;5031812;28;20060;-63
2023/01/17 12:30:52;;;;;;;3.47;2.55;;;6.10;99.90;;;;;;5031448;28;20100;-58
2023/01/17 12:33:26;;;;;;;4.95;3.03;;;6.00;99.90;;;;;;5030482;28;20033;-58
2023/01/17 12:35:57;;;;;;;4.15;3.00;;;6.00;99.90;;;;;;5031859;28;20083;-58
2023/01/17 12:38:37;;;;;;;2.80;2.58;;;6.00;99.90;;;;;;5031590;28;20065;-53
2023/01/17 12:41:21;;;;;;;3.50;2.03;;;6.00;99.90;;;;;;5031124;28;20443;-53
2023/01/17 12:43:49;;;;;;;7.25;2.92;;;6.00;99.90;;;;;;5030901;28;20521;-58
2023/01/17 12:46:39;;;;;;;3.85;2.55;;;6.00;99.90;;;;;;5011574;28;20084;-54
2023/01/17 12:49:42;;;;;;;8.02;3.22;;;6.00;99.90;;;;;;4988021;28;20030;-56
2023/01/17 12:52:47;;;;;;;2.53;2.13;;;5.90;99.90;;;;;;5010658;28;20104;-56
2023/01/17 12:55:21;;;;;;;4.28;2.40;;;5.90;99.90;;;;;;5003892;28;20022;-52
2023/01/17 12:57:56;;;;;;;3.70;2.60;;;5.90;99.90;;;;;;5011897;28;20021;-53
2023/01/17 13:00:25;;;;;;;2.22;2.00;;;5.90;99.90;;;;;;5012094;28;20056;-61
2023/01/17 13:03:06;;;;;;;2.50;1.95;;;5.90;99.90;;;;;;5010581;28;20092;-59
2023/01/17 13:05:37;;;;;;;3.75;1.90;;;6.00;99.90;;;;;;4996125;28;20101;-64
2023/01/17 13:08:27;;;;;;;2.08;1.88;;;6.00;99.90;;;;;;5011604;28;20026;-65
2023/01/17 13:10:59;;;;;;;2.58;1.70;;;5.90;99.90;;;;;;5001660;28;20065;-52
2023/01/17 13:13:26;;;;;;;4.00;1.75;;;6.00;99.90;;;;;;4991494;28;20049;-57
2023/01/17 13:16:15;;;;;;;5.65;2.03;;;6.10;99.90;;;;;;4987914;28;20481;-56
2023/01/17 13:18:45;;;;;;;2.65;2.05;;;6.10;99.70;;;;;;4988866;28;20044;-51
2023/01/17 13:21:32;;;;;;;2.45;2.25;;;6.10;99.80;;;;;;5010529;28;20104;-48
2023/01/17 13:23:58;;;;;;;5.18;1.77;;;6.10;99.90;;;;;;5015169;28;20101;-49
2023/01/17 13:26:47;;;;;;;3.67;2.03;;;6.10;99.90;;;;;;5013828;28;20048;-51
2023/01/17 13:29:47;;;;;;;2.08;1.83;;;6.20;99.90;;;;;;4999999;28;20451;-54
2023/01/17 13:32:46;;;;;;;3.17;2.10;;;6.20;99.90;;;;;;5002126;28;20029;-54
2023/01/17 13:35:18;;;;;;;5.93;2.40;;;6.10;99.60;;;;;;5020767;28;20022;-50
2023/01/17 13:38:11;;;;;;;2.60;2.40;;;6.00;99.90;;;;;;5021653;28;20094;-52
2023/01/17 13:40:53;;;;;;;7.35;3.58;;;5.90;99.90;;;;;;4990808;28;20105;-53
2023/01/17 13:43:22;;;;;;;5.43;2.88;;;5.80;99.90;;;;;;5013464;28;20084;-52
2023/01/17 13:45:56;;;;;;;5.13;2.95;;;5.80;99.90;;;;;;5015534;28;20033;-55
2023/01/17 13:48:22;;;;;;;3.05;2.50;;;5.80;99.90;;;;;;5014913;28;20469;-52
2023/01/17 13:50:51;;;;;;;7.07;3.00;;;5.70;99.90;;;;;;5015439;28;20049;-58
2023/01/17 13:53:38;;;;;;;5.10;2.28;;;5.70;99.90;;;;;;4997005;28;20030;-53
2023/01/17 13:56:18;;;;;;;3.13;2.20;;;5.70;99.90;;;;;;5015122;28;20026;-52
2023/01/17 13:58:45;;;;;;;22.85;14.15;;;5.60;99.90;;;;;;5015295;28;20055;-50
2023/01/17 14:01:11;;;;;;;5.13;4.25;;;5.60;99.90;;;;;;5014952;28;20374;-52
2023/01/17 14:03:49;;;;;;;7.45;3.80;;;5.60;99.90;;;;;;5014083;28;20033;-51
2023/01/17 14:06:43;;;;;;;2.97;2.67;;;5.60;99.90;;;;;;5014895;28;20029;-50
2023/01/17 14:09:11;;;;;;;4.20;2.83;;;5.70;99.90;;;;;;5013661;28;20397;-51
2023/01/17 14:11:56;;;;;;;4.47;3.60;;;5.70;99.90;;;;;;5014979;28;20037;-56
2023/01/17 14:14:40;;;;;;;4.70;2.78;;;5.70;99.90;;;;;;4997128;28;20049;-55
2023/01/17 14:17:32;;;;;;;6.75;3.10;;;5.70;99.90;;;;;;5014601;28;20401;-53
2023/01/17 14:20:24;;;;;;;8.52;2.95;;;5.60;99.90;;;;;;4996955;28;20053;-50
2023/01/17 14:22:59;;;;;;;6.30;3.50;;;5.60;99.90;;;;;;4996209;28;20033;-54
2023/01/17 14:25:36;;;;;;;4.22;3.03;;;5.50;99.90;;;;;;5014710;28;20030;-57
2023/01/17 14:28:17;;;;;;;4.72;2.70;;;5.60;99.90;;;;;;4996508;28;20121;-58
2023/01/17 14:30:44;;;;;;;6.80;2.75;;;5.60;99.90;;;;;;5014322;28;20022;-58
2023/01/17 14:33:14;;;;;;;4.63;3.10;;;5.50;99.90;;;;;;5013608;28;20026;-55
2023/01/17 14:35:51;;;;;;;4.03;2.60;;;5.40;99.90;;;;;;5013057;28;20061;-52
2023/01/17 14:38:41;;;;;;;4.13;3.38;;;5.50;99.90;;;;;;5013919;28;20038;-58
2023/01/17 14:41:12;;;;;;;4.30;2.65;;;5.40;99.90;;;;;;5014063;28;20029;-55
2023/01/17 14:43:41;;;;;;;4.20;2.22;;;5.30;99.90;;;;;;4995875;28;20025;-55
2023/01/17 14:46:26;;;;;;;3.17;2.58;;;5.20;99.90;;;;;;4996600;28;20022;-54